sensor_id;sensor_type;location;lat;lon;timestamp;P1;durP1;ratioP1;P2;durP2;ratioP2
11008;SDS011;5557;51.670;7.788;2022-08-05T00:00:52;3.83;;;1.87;;
11008;SDS011;5557;51.670;7.788;2022-08-05T00:03:19;3.30;;;1.57;;
11008;SDS011;5557;51.670;7.788;2022-08-05T00:05:47;10.60;;;2.80;;
11008;SDS011;5557;51.670;7.788;2022-08-05T00:08:34;4.37;;;2.40;;
11008;SDS011;5557;51.670;7.788;2022-08-05T00:11:02;3.23;;;2.37;;
11008;SDS011;5557;51.670;7.788;2022-08-05T00:13:51;2.67;;;2.47;;
11008;SDS011;5557;51.670;7.788;2022-08-05T00:16:18;5.00;;;2.17;;
11008;SDS011;5557;51.670;7.788;2022-08-05T00:19:02;3.00;;;2.40;;
11008;SDS011;5557;51.670;7.788;2022-08-05T00:21:29;7.37;;;2.87;;
11008;SDS011;5557;51.670;7.788;2022-08-05T00:24:01;3.63;;;2.50;;
11008;SDS011;5557;51.670;7.788;2022-08-05T00:26:36;4.50;;;2.30;;
11008;SDS011;5557;51.670;7.788;2022-08-05T00:29:03;4.60;;;2.30;;
11008;SDS011;5557;51.670;7.788;2022-08-05T00:31:30;7.53;;;3.00;;
11008;SDS011;5557;51.670;7.788;2022-08-05T00:34:17;2.20;;;2.10;;
11008;SDS011;5557;51.670;7.788;2022-08-05T00:37:05;3.10;;;2.43;;
11008;SDS011;5557;51.670;7.788;2022-08-05T00:39:39;2.03;;;1.90;;
11008;SDS011;5557;51.670;7.788;2022-08-05T00:42:36;3.40;;;2.00;;
11008;SDS011;5557;51.670;7.788;2022-08-05T00:45:05;2.47;;;2.27;;
11008;SDS011;5557;51.670;7.788;2022-08-05T00:47:38;6.73;;;2.60;;
11008;SDS011;5557;51.670;7.788;2022-08-05T00:50:22;2.53;;;2.00;;
11008;SDS011;5557;51.670;7.788;2022-08-05T00:52:51;8.43;;;3.30;;
11008;SDS011;5557;51.670;7.788;2022-08-05T00:55:20;3.53;;;3.20;;
11008;SDS011;5557;51.670;7.788;2022-08-05T00:57:47;4.00;;;2.60;;
11008;SDS011;5557;51.670;7.788;2022-08-05T01:00:25;5.27;;;3.27;;
11008;SDS011;5557;51.670;7.788;2022-08-05T01:02:53;7.10;;;4.63;;
11008;SDS011;5557;51.670;7.788;2022-08-05T01:05:22;8.83;;;5.60;;
11008;SDS011;5557;51.670;7.788;2022-08-05T01:07:52;6.07;;;5.30;;
11008;SDS011;5557;51.670;7.788;2022-08-05T01:10:46;7.53;;;4.03;;
11008;SDS011;5557;51.670;7.788;2022-08-05T01:16:53;5.30;;;3.63;;
11008;SDS011;5557;51.670;7.788;2022-08-05T01:19:44;4.40;;;3.57;;
11008;SDS011;5557;51.670;7.788;2022-08-05T01:22:36;7.10;;;3.37;;
11008;SDS011;5557;51.670;7.788;2022-08-05T01:26:06;2.70;;;2.50;;
11008;SDS011;5557;51.670;7.788;2022-08-05T01:29:02;3.80;;;3.20;;
11008;SDS011;5557;51.670;7.788;2022-08-05T01:31:51;4.10;;;2.70;;
11008;SDS011;5557;51.670;7.788;2022-08-05T01:34:28;9.73;;;3.30;;
11008;SDS011;5557;51.670;7.788;2022-08-05T01:37:48;7.03;;;3.90;;
11008;SDS011;5557;51.670;7.788;2022-08-05T01:39:51;9.73;;;3.40;;
11008;SDS011;5557;51.670;7.788;2022-08-05T01:42:24;9.73;;;3.73;;
11008;SDS011;5557;51.670;7.788;2022-08-05T01:44:54;11.50;;;3.43;;
11008;SDS011;5557;51.670;7.788;2022-08-05T01:47:25;4.87;;;3.20;;
11008;SDS011;5557;51.670;7.788;2022-08-05T01:50:05;4.70;;;3.20;;
11008;SDS011;5557;51.670;7.788;2022-08-05T01:52:41;10.50;;;4.03;;
11008;SDS011;5557;51.670;7.788;2022-08-05T01:55:15;6.73;;;3.47;;
11008;SDS011;5557;51.670;7.788;2022-08-05T01:57:44;17.00;;;3.60;;
11008;SDS011;5557;51.670;7.788;2022-08-05T02:00:34;4.30;;;3.90;;
11008;SDS011;5557;51.670;7.788;2022-08-05T02:03:15;6.20;;;4.47;;
11008;SDS011;5557;51.670;7.788;2022-08-05T02:05:59;6.93;;;4.30;;
11008;SDS011;5557;51.670;7.788;2022-08-05T02:08:47;4.33;;;4.00;;
11008;SDS011;5557;51.670;7.788;2022-08-05T02:11:24;6.27;;;4.10;;
11008;SDS011;5557;51.670;7.788;2022-08-05T02:14:04;8.90;;;4.53;;
11008;SDS011;5557;51.670;7.788;2022-08-05T02:16:43;8.43;;;4.07;;
11008;SDS011;5557;51.670;7.788;2022-08-05T02:19:29;4.47;;;4.10;;
11008;SDS011;5557;51.670;7.788;2022-08-05T02:22:16;7.30;;;3.87;;
11008;SDS011;5557;51.670;7.788;2022-08-05T02:24:54;10.23;;;4.00;;
11008;SDS011;5557;51.670;7.788;2022-08-05T02:27:27;3.50;;;3.20;;
11008;SDS011;5557;51.670;7.788;2022-08-05T02:30:17;4.33;;;4.00;;
11008;SDS011;5557;51.670;7.788;2022-08-05T02:32:46;13.40;;;3.83;;
11008;SDS011;5557;51.670;7.788;2022-08-05T02:35:18;5.33;;;4.13;;
11008;SDS011;5557;51.670;7.788;2022-08-05T02:37:53;6.20;;;3.93;;
11008;SDS011;5557;51.670;7.788;2022-08-05T02:40:25;6.33;;;3.37;;
11008;SDS011;5557;51.670;7.788;2022-08-05T02:42:52;4.90;;;3.77;;
11008;SDS011;5557;51.670;7.788;2022-08-05T02:45:21;5.03;;;3.87;;
11008;SDS011;5557;51.670;7.788;2022-08-05T02:47:51;6.33;;;3.80;;
11008;SDS011;5557;51.670;7.788;2022-08-05T02:50:37;7.30;;;4.93;;
11008;SDS011;5557;51.670;7.788;2022-08-05T02:53:09;9.30;;;7.07;;
11008;SDS011;5557;51.670;7.788;2022-08-05T02:55:45;8.57;;;6.90;;
11008;SDS011;5557;51.670;7.788;2022-08-05T02:58:25;12.03;;;9.33;;
11008;SDS011;5557;51.670;7.788;2022-08-05T03:00:55;9.30;;;6.40;;
11008;SDS011;5557;51.670;7.788;2022-08-05T03:03:24;8.93;;;6.60;;
11008;SDS011;5557;51.670;7.788;2022-08-05T03:05:59;5.40;;;4.90;;
11008;SDS011;5557;51.670;7.788;2022-08-05T03:08:48;6.73;;;6.20;;
11008;SDS011;5557;51.670;7.788;2022-08-05T03:11:24;10.10;;;4.67;;
11008;SDS011;5557;51.670;7.788;2022-08-05T03:14:11;6.33;;;4.60;;
11008;SDS011;5557;51.670;7.788;2022-08-05T03:16:40;7.10;;;5.57;;
11008;SDS011;5557;51.670;7.788;2022-08-05T03:19:06;10.33;;;5.93;;
11008;SDS011;5557;51.670;7.788;2022-08-05T03:21:42;7.30;;;5.77;;
11008;SDS011;5557;51.670;7.788;2022-08-05T03:24:16;8.57;;;7.67;;
11008;SDS011;5557;51.670;7.788;2022-08-05T03:26:55;14.47;;;8.27;;
11008;SDS011;5557;51.670;7.788;2022-08-05T03:29:23;14.00;;;7.07;;
11008;SDS011;5557;51.670;7.788;2022-08-05T03:32:10;8.80;;;6.20;;
11008;SDS011;5557;51.670;7.788;2022-08-05T03:34:40;7.63;;;5.80;;
11008;SDS011;5557;51.670;7.788;2022-08-05T03:37:17;14.93;;;8.60;;
11008;SDS011;5557;51.670;7.788;2022-08-05T03:39:54;8.07;;;7.00;;
11008;SDS011;5557;51.670;7.788;2022-08-05T03:42:25;12.70;;;7.70;;
11008;SDS011;5557;51.670;7.788;2022-08-05T03:44:57;9.10;;;8.00;;
11008;SDS011;5557;51.670;7.788;2022-08-05T03:47:28;15.23;;;9.67;;
11008;SDS011;5557;51.670;7.788;2022-08-05T03:49:55;11.83;;;8.37;;
11008;SDS011;5557;51.670;7.788;2022-08-05T03:52:23;13.07;;;9.63;;
11008;SDS011;5557;51.670;7.788;2022-08-05T03:55:18;17.30;;;10.63;;
11008;SDS011;5557;51.670;7.788;2022-08-05T03:58:11;14.10;;;11.13;;
11008;SDS011;5557;51.670;7.788;2022-08-05T04:00:41;16.20;;;10.23;;
11008;SDS011;5557;51.670;7.788;2022-08-05T04:03:16;16.30;;;11.00;;
11008;SDS011;5557;51.670;7.788;2022-08-05T04:05:54;23.13;;;10.00;;
11008;SDS011;5557;51.670;7.788;2022-08-05T04:08:24;26.33;;;11.33;;
11008;SDS011;5557;51.670;7.788;2022-08-05T04:11:02;20.97;;;10.73;;
11008;SDS011;5557;51.670;7.788;2022-08-05T04:13:33;14.90;;;8.87;;
11008;SDS011;5557;51.670;7.788;2022-08-05T04:16:16;13.63;;;9.07;;
11008;SDS011;5557;51.670;7.788;2022-08-05T04:18:49;10.53;;;8.77;;
11008;SDS011;5557;51.670;7.788;2022-08-05T04:21:19;11.60;;;7.80;;
11008;SDS011;5557;51.670;7.788;2022-08-05T04:24:07;14.73;;;8.80;;
11008;SDS011;5557;51.670;7.788;2022-08-05T04:26:47;21.43;;;10.67;;
11008;SDS011;5557;51.670;7.788;2022-08-05T04:29:15;20.90;;;10.20;;
11008;SDS011;5557;51.670;7.788;2022-08-05T04:31:42;20.60;;;11.07;;
11008;SDS011;5557;51.670;7.788;2022-08-05T04:34:12;15.17;;;9.37;;
11008;SDS011;5557;51.670;7.788;2022-08-05T04:36:58;14.30;;;9.10;;
11008;SDS011;5557;51.670;7.788;2022-08-05T04:39:28;14.70;;;10.83;;
11008;SDS011;5557;51.670;7.788;2022-08-05T04:41:55;21.00;;;10.73;;
11008;SDS011;5557;51.670;7.788;2022-08-05T04:44:22;14.07;;;9.97;;
11008;SDS011;5557;51.670;7.788;2022-08-05T04:46:56;18.90;;;10.67;;
11008;SDS011;5557;51.670;7.788;2022-08-05T04:49:24;14.20;;;11.10;;
11008;SDS011;5557;51.670;7.788;2022-08-05T04:52:11;15.87;;;10.87;;
11008;SDS011;5557;51.670;7.788;2022-08-05T04:54:40;20.83;;;11.67;;
11008;SDS011;5557;51.670;7.788;2022-08-05T04:57:07;16.57;;;13.27;;
11008;SDS011;5557;51.670;7.788;2022-08-05T04:59:34;26.83;;;16.73;;
11008;SDS011;5557;51.670;7.788;2022-08-05T05:02:04;21.93;;;13.17;;
11008;SDS011;5557;51.670;7.788;2022-08-05T05:04:51;18.83;;;11.33;;
11008;SDS011;5557;51.670;7.788;2022-08-05T05:07:28;21.73;;;11.80;;
11008;SDS011;5557;51.670;7.788;2022-08-05T05:09:58;22.50;;;11.67;;
11008;SDS011;5557;51.670;7.788;2022-08-05T05:12:28;14.30;;;10.57;;
11008;SDS011;5557;51.670;7.788;2022-08-05T05:14:55;20.03;;;12.10;;
11008;SDS011;5557;51.670;7.788;2022-08-05T05:17:22;19.57;;;11.77;;
11008;SDS011;5557;51.670;7.788;2022-08-05T05:20:09;15.90;;;11.23;;
11008;SDS011;5557;51.670;7.788;2022-08-05T05:22:37;17.20;;;11.70;;
11008;SDS011;5557;51.670;7.788;2022-08-05T05:25:09;16.03;;;11.20;;
11008;SDS011;5557;51.670;7.788;2022-08-05T05:27:42;19.23;;;12.13;;
11008;SDS011;5557;51.670;7.788;2022-08-05T05:30:18;17.23;;;11.20;;
11008;SDS011;5557;51.670;7.788;2022-08-05T05:32:59;16.47;;;12.23;;
11008;SDS011;5557;51.670;7.788;2022-08-05T05:35:41;16.63;;;11.47;;
11008;SDS011;5557;51.670;7.788;2022-08-05T05:38:13;15.90;;;11.27;;
11008;SDS011;5557;51.670;7.788;2022-08-05T05:40:52;23.50;;;15.27;;
11008;SDS011;5557;51.670;7.788;2022-08-05T05:43:22;22.97;;;15.47;;
11008;SDS011;5557;51.670;7.788;2022-08-05T05:46:09;34.87;;;14.43;;
11008;SDS011;5557;51.670;7.788;2022-08-05T05:48:43;24.80;;;13.00;;
11008;SDS011;5557;51.670;7.788;2022-08-05T05:51:23;25.53;;;12.87;;
11008;SDS011;5557;51.670;7.788;2022-08-05T05:53:53;24.77;;;13.00;;
11008;SDS011;5557;51.670;7.788;2022-08-05T05:56:27;29.50;;;14.07;;
11008;SDS011;5557;51.670;7.788;2022-08-05T05:59:01;20.40;;;13.30;;
11008;SDS011;5557;51.670;7.788;2022-08-05T06:01:31;18.30;;;11.93;;
11008;SDS011;5557;51.670;7.788;2022-08-05T06:04:11;15.10;;;11.60;;
11008;SDS011;5557;51.670;7.788;2022-08-05T06:06:40;17.40;;;12.17;;
11008;SDS011;5557;51.670;7.788;2022-08-05T06:09:14;17.63;;;12.10;;
11008;SDS011;5557;51.670;7.788;2022-08-05T06:11:49;15.67;;;10.07;;
11008;SDS011;5557;51.670;7.788;2022-08-05T06:14:28;20.17;;;12.57;;
11008;SDS011;5557;51.670;7.788;2022-08-05T06:17:00;20.93;;;12.43;;
11008;SDS011;5557;51.670;7.788;2022-08-05T06:19:48;30.33;;;13.20;;
11008;SDS011;5557;51.670;7.788;2022-08-05T06:22:25;19.43;;;12.07;;
11008;SDS011;5557;51.670;7.788;2022-08-05T06:24:54;19.27;;;12.67;;
11008;SDS011;5557;51.670;7.788;2022-08-05T06:27:22;22.87;;;12.60;;
11008;SDS011;5557;51.670;7.788;2022-08-05T06:30:10;23.67;;;13.80;;
11008;SDS011;5557;51.670;7.788;2022-08-05T06:32:46;28.60;;;15.60;;
11008;SDS011;5557;51.670;7.788;2022-08-05T06:35:16;28.13;;;14.50;;
11008;SDS011;5557;51.670;7.788;2022-08-05T06:38:03;23.13;;;14.60;;
11008;SDS011;5557;51.670;7.788;2022-08-05T06:40:36;23.60;;;15.60;;
11008;SDS011;5557;51.670;7.788;2022-08-05T06:43:09;23.47;;;14.93;;
11008;SDS011;5557;51.670;7.788;2022-08-05T06:45:56;25.10;;;15.23;;
11008;SDS011;5557;51.670;7.788;2022-08-05T06:48:32;24.83;;;15.73;;
11008;SDS011;5557;51.670;7.788;2022-08-05T06:51:20;21.40;;;15.70;;
11008;SDS011;5557;51.670;7.788;2022-08-05T06:53:56;24.13;;;17.03;;
11008;SDS011;5557;51.670;7.788;2022-08-05T06:56:27;25.43;;;16.23;;
11008;SDS011;5557;51.670;7.788;2022-08-05T06:58:59;26.83;;;16.00;;
11008;SDS011;5557;51.670;7.788;2022-08-05T07:01:26;28.20;;;17.30;;
11008;SDS011;5557;51.670;7.788;2022-08-05T07:03:58;41.27;;;17.27;;
11008;SDS011;5557;51.670;7.788;2022-08-05T07:06:27;25.47;;;16.67;;
11008;SDS011;5557;51.670;7.788;2022-08-05T07:08:54;32.23;;;17.97;;
11008;SDS011;5557;51.670;7.788;2022-08-05T07:11:24;23.83;;;16.00;;
11008;SDS011;5557;51.670;7.788;2022-08-05T07:13:53;28.03;;;16.93;;
11008;SDS011;5557;51.670;7.788;2022-08-05T07:16:46;32.27;;;17.27;;
11008;SDS011;5557;51.670;7.788;2022-08-05T07:19:36;27.50;;;16.90;;
11008;SDS011;5557;51.670;7.788;2022-08-05T07:22:24;30.57;;;17.40;;
11008;SDS011;5557;51.670;7.788;2022-08-05T07:24:54;31.57;;;16.10;;
11008;SDS011;5557;51.670;7.788;2022-08-05T07:27:46;29.70;;;16.50;;
11008;SDS011;5557;51.670;7.788;2022-08-05T07:30:25;25.53;;;16.30;;
11008;SDS011;5557;51.670;7.788;2022-08-05T07:32:59;26.37;;;16.23;;
11008;SDS011;5557;51.670;7.788;2022-08-05T07:35:34;31.93;;;19.10;;
11008;SDS011;5557;51.670;7.788;2022-08-05T07:38:24;27.53;;;18.80;;
11008;SDS011;5557;51.670;7.788;2022-08-05T07:41:03;30.47;;;18.50;;
11008;SDS011;5557;51.670;7.788;2022-08-05T07:43:51;38.47;;;25.47;;
11008;SDS011;5557;51.670;7.788;2022-08-05T07:46:22;31.87;;;24.47;;
11008;SDS011;5557;51.670;7.788;2022-08-05T07:48:54;26.53;;;18.57;;
11008;SDS011;5557;51.670;7.788;2022-08-05T07:51:30;33.53;;;22.87;;
11008;SDS011;5557;51.670;7.788;2022-08-05T07:54:05;40.10;;;21.57;;
11008;SDS011;5557;51.670;7.788;2022-08-05T07:56:35;22.40;;;18.50;;
11008;SDS011;5557;51.670;7.788;2022-08-05T07:59:23;27.37;;;17.80;;
11008;SDS011;5557;51.670;7.788;2022-08-05T08:02:04;32.30;;;17.30;;
11008;SDS011;5557;51.670;7.788;2022-08-05T08:04:41;19.73;;;17.03;;
11008;SDS011;5557;51.670;7.788;2022-08-05T08:07:10;29.03;;;17.43;;
11008;SDS011;5557;51.670;7.788;2022-08-05T08:09:37;27.83;;;17.77;;
11008;SDS011;5557;51.670;7.788;2022-08-05T08:12:04;22.60;;;16.93;;
11008;SDS011;5557;51.670;7.788;2022-08-05T08:14:51;34.37;;;17.00;;
11008;SDS011;5557;51.670;7.788;2022-08-05T08:17:19;19.07;;;15.73;;
11008;SDS011;5557;51.670;7.788;2022-08-05T08:19:48;22.93;;;17.03;;
11008;SDS011;5557;51.670;7.788;2022-08-05T08:22:35;23.00;;;15.33;;
11008;SDS011;5557;51.670;7.788;2022-08-05T08:25:03;24.43;;;14.70;;
11008;SDS011;5557;51.670;7.788;2022-08-05T08:27:41;16.40;;;11.73;;
11008;SDS011;5557;51.670;7.788;2022-08-05T08:30:13;9.50;;;8.70;;
11008;SDS011;5557;51.670;7.788;2022-08-05T08:32:59;9.87;;;6.80;;
11008;SDS011;5557;51.670;7.788;2022-08-05T08:35:33;7.73;;;7.00;;
11008;SDS011;5557;51.670;7.788;2022-08-05T08:38:07;10.60;;;6.53;;
11008;SDS011;5557;51.670;7.788;2022-08-05T08:40:41;8.10;;;6.57;;
11008;SDS011;5557;51.670;7.788;2022-08-05T08:43:17;18.63;;;6.60;;
11008;SDS011;5557;51.670;7.788;2022-08-05T08:46:04;14.53;;;7.00;;
11008;SDS011;5557;51.670;7.788;2022-08-05T08:48:35;12.43;;;7.47;;
11008;SDS011;5557;51.670;7.788;2022-08-05T08:51:25;10.30;;;5.73;;
11008;SDS011;5557;51.670;7.788;2022-08-05T08:54:15;6.53;;;5.70;;
11008;SDS011;5557;51.670;7.788;2022-08-05T08:56:42;6.23;;;5.70;;
11008;SDS011;5557;51.670;7.788;2022-08-05T08:59:16;6.40;;;5.80;;
11008;SDS011;5557;51.670;7.788;2022-08-05T09:01:46;11.27;;;7.00;;
11008;SDS011;5557;51.670;7.788;2022-08-05T09:04:26;6.70;;;6.00;;
11008;SDS011;5557;51.670;7.788;2022-08-05T09:06:56;9.40;;;6.87;;
11008;SDS011;5557;51.670;7.788;2022-08-05T09:09:24;10.33;;;5.50;;
11008;SDS011;5557;51.670;7.788;2022-08-05T09:12:01;9.50;;;7.30;;
11008;SDS011;5557;51.670;7.788;2022-08-05T09:14:46;16.07;;;7.57;;
11008;SDS011;5557;51.670;7.788;2022-08-05T09:17:30;8.43;;;7.33;;
11008;SDS011;5557;51.670;7.788;2022-08-05T09:20:11;12.50;;;6.77;;
11008;SDS011;5557;51.670;7.788;2022-08-05T09:23:12;13.90;;;7.17;;
11008;SDS011;5557;51.670;7.788;2022-08-05T09:25:48;12.70;;;10.03;;
11008;SDS011;5557;51.670;7.788;2022-08-05T09:28:29;14.90;;;10.73;;
11008;SDS011;5557;51.670;7.788;2022-08-05T09:33:52;11.27;;;8.90;;
11008;SDS011;5557;51.670;7.788;2022-08-05T09:36:42;12.50;;;9.80;;
11008;SDS011;5557;51.670;7.788;2022-08-05T09:39:24;9.43;;;7.60;;
11008;SDS011;5557;51.670;7.788;2022-08-05T09:42:12;12.07;;;8.90;;
11008;SDS011;5557;51.670;7.788;2022-08-05T09:44:52;13.00;;;8.37;;
11008;SDS011;5557;51.670;7.788;2022-08-05T09:47:22;12.73;;;8.70;;
11008;SDS011;5557;51.670;7.788;2022-08-05T09:49:54;8.63;;;7.87;;
11008;SDS011;5557;51.670;7.788;2022-08-05T09:52:31;10.73;;;7.60;;
11008;SDS011;5557;51.670;7.788;2022-08-05T09:55:09;5.40;;;5.00;;
11008;SDS011;5557;51.670;7.788;2022-08-05T09:57:57;10.47;;;5.73;;
11008;SDS011;5557;51.670;7.788;2022-08-05T10:00:25;11.80;;;5.80;;
11008;SDS011;5557;51.670;7.788;2022-08-05T10:02:54;5.60;;;4.83;;
11008;SDS011;5557;51.670;7.788;2022-08-05T10:05:24;10.13;;;6.37;;
11008;SDS011;5557;51.670;7.788;2022-08-05T10:07:57;7.67;;;7.07;;
11008;SDS011;5557;51.670;7.788;2022-08-05T10:10:46;11.07;;;7.67;;
11008;SDS011;5557;51.670;7.788;2022-08-05T10:13:30;7.00;;;5.67;;
11008;SDS011;5557;51.670;7.788;2022-08-05T10:19:18;5.57;;;4.90;;
11008;SDS011;5557;51.670;7.788;2022-08-05T10:21:57;6.57;;;4.60;;
11008;SDS011;5557;51.670;7.788;2022-08-05T10:24:24;6.93;;;4.20;;
11008;SDS011;5557;51.670;7.788;2022-08-05T10:26:53;7.03;;;3.83;;
11008;SDS011;5557;51.670;7.788;2022-08-05T10:29:25;6.17;;;4.20;;
11008;SDS011;5557;51.670;7.788;2022-08-05T10:32:15;4.60;;;3.97;;
11008;SDS011;5557;51.670;7.788;2022-08-05T10:35:02;4.13;;;3.83;;
11008;SDS011;5557;51.670;7.788;2022-08-05T10:37:30;3.87;;;3.10;;
11008;SDS011;5557;51.670;7.788;2022-08-05T10:40:55;4.47;;;3.60;;
11008;SDS011;5557;51.670;7.788;2022-08-05T10:43:37;10.93;;;3.23;;
11008;SDS011;5557;51.670;7.788;2022-08-05T10:50:08;8.73;;;4.10;;
11008;SDS011;5557;51.670;7.788;2022-08-05T10:52:59;3.57;;;3.27;;
11008;SDS011;5557;51.670;7.788;2022-08-05T10:55:27;4.33;;;4.03;;
11008;SDS011;5557;51.670;7.788;2022-08-05T10:58:07;9.50;;;4.10;;
11008;SDS011;5557;51.670;7.788;2022-08-05T11:00:36;4.83;;;4.37;;
11008;SDS011;5557;51.670;7.788;2022-08-05T11:03:09;4.63;;;4.20;;
11008;SDS011;5557;51.670;7.788;2022-08-05T11:06:07;5.77;;;5.30;;
11008;SDS011;5557;51.670;7.788;2022-08-05T11:11:44;4.87;;;3.77;;
11008;SDS011;5557;51.670;7.788;2022-08-05T11:14:25;18.13;;;4.87;;
11008;SDS011;5557;51.670;7.788;2022-08-05T11:17:29;5.20;;;4.30;;
11008;SDS011;5557;51.670;7.788;2022-08-05T11:20:38;33.73;;;6.03;;
11008;SDS011;5557;51.670;7.788;2022-08-05T11:26:39;34.07;;;6.10;;
11008;SDS011;5557;51.670;7.788;2022-08-05T11:29:14;5.93;;;3.43;;
11008;SDS011;5557;51.670;7.788;2022-08-05T11:32:26;9.63;;;3.13;;
11008;SDS011;5557;51.670;7.788;2022-08-05T11:34:55;10.97;;;3.57;;
11008;SDS011;5557;51.670;7.788;2022-08-05T11:37:42;11.17;;;5.33;;
11008;SDS011;5557;51.670;7.788;2022-08-05T11:41:01;7.33;;;3.00;;
11008;SDS011;5557;51.670;7.788;2022-08-05T11:43:53;5.60;;;2.70;;
11008;SDS011;5557;51.670;7.788;2022-08-05T11:47:03;4.70;;;2.40;;
11008;SDS011;5557;51.670;7.788;2022-08-05T11:49:42;4.23;;;2.63;;
11008;SDS011;5557;51.670;7.788;2022-08-05T11:52:22;5.67;;;2.67;;
11008;SDS011;5557;51.670;7.788;2022-08-05T11:54:55;3.83;;;3.50;;
11008;SDS011;5557;51.670;7.788;2022-08-05T11:57:32;6.83;;;2.90;;
11008;SDS011;5557;51.670;7.788;2022-08-05T12:00:28;3.40;;;3.03;;
11008;SDS011;5557;51.670;7.788;2022-08-05T12:02:56;2.47;;;2.37;;
11008;SDS011;5557;51.670;7.788;2022-08-05T12:05:27;36.50;;;5.20;;
11008;SDS011;5557;51.670;7.788;2022-08-05T12:08:08;10.67;;;2.80;;
11008;SDS011;5557;51.670;7.788;2022-08-05T12:10:43;6.60;;;3.30;;
11008;SDS011;5557;51.670;7.788;2022-08-05T12:13:14;36.50;;;4.90;;
11008;SDS011;5557;51.670;7.788;2022-08-05T12:16:06;2.27;;;2.10;;
11008;SDS011;5557;51.670;7.788;2022-08-05T12:18:40;5.40;;;1.90;;
11008;SDS011;5557;51.670;7.788;2022-08-05T12:21:15;2.50;;;1.50;;
11008;SDS011;5557;51.670;7.788;2022-08-05T12:24:07;2.23;;;2.03;;
11008;SDS011;5557;51.670;7.788;2022-08-05T12:29:23;2.83;;;1.20;;
11008;SDS011;5557;51.670;7.788;2022-08-05T12:31:55;1.90;;;1.80;;
11008;SDS011;5557;51.670;7.788;2022-08-05T12:34:29;10.43;;;1.67;;
11008;SDS011;5557;51.670;7.788;2022-08-05T12:37:02;8.33;;;2.00;;
11008;SDS011;5557;51.670;7.788;2022-08-05T12:39:43;1.67;;;1.30;;
11008;SDS011;5557;51.670;7.788;2022-08-05T12:42:16;1.83;;;1.70;;
11008;SDS011;5557;51.670;7.788;2022-08-05T12:44:44;2.50;;;1.57;;
11008;SDS011;5557;51.670;7.788;2022-08-05T12:47:13;2.50;;;1.30;;
11008;SDS011;5557;51.670;7.788;2022-08-05T12:49:53;71.93;;;7.33;;
11008;SDS011;5557;51.670;7.788;2022-08-05T12:52:32;10.77;;;2.23;;
11008;SDS011;5557;51.670;7.788;2022-08-05T12:55:17;1.63;;;1.53;;
11008;SDS011;5557;51.670;7.788;2022-08-05T12:57:54;1.83;;;1.43;;
11008;SDS011;5557;51.670;7.788;2022-08-05T13:00:43;3.73;;;1.40;;
11008;SDS011;5557;51.670;7.788;2022-08-05T13:03:33;1.80;;;1.70;;
11008;SDS011;5557;51.670;7.788;2022-08-05T13:06:08;52.57;;;5.07;;
11008;SDS011;5557;51.670;7.788;2022-08-05T13:08:38;6.93;;;1.30;;
11008;SDS011;5557;51.670;7.788;2022-08-05T13:11:05;3.07;;;1.53;;
11008;SDS011;5557;51.670;7.788;2022-08-05T13:13:36;1.87;;;1.23;;
11008;SDS011;5557;51.670;7.788;2022-08-05T13:16:23;6.43;;;1.80;;
11008;SDS011;5557;51.670;7.788;2022-08-05T13:18:54;2.03;;;1.40;;
11008;SDS011;5557;51.670;7.788;2022-08-05T13:21:24;4.87;;;1.70;;
11008;SDS011;5557;51.670;7.788;2022-08-05T13:23:53;4.07;;;1.90;;
11008;SDS011;5557;51.670;7.788;2022-08-05T13:26:20;1.73;;;1.60;;
11008;SDS011;5557;51.670;7.788;2022-08-05T13:28:55;1.90;;;1.30;;
11008;SDS011;5557;51.670;7.788;2022-08-05T13:31:24;10.93;;;1.70;;
11008;SDS011;5557;51.670;7.788;2022-08-05T13:34:11;8.33;;;2.10;;
11008;SDS011;5557;51.670;7.788;2022-08-05T13:36:50;2.00;;;1.90;;
11008;SDS011;5557;51.670;7.788;2022-08-05T13:39:18;1.87;;;1.77;;
11008;SDS011;5557;51.670;7.788;2022-08-05T13:42:05;2.70;;;1.70;;
11008;SDS011;5557;51.670;7.788;2022-08-05T13:44:40;4.80;;;1.60;;
11008;SDS011;5557;51.670;7.788;2022-08-05T13:47:11;2.47;;;1.40;;
11008;SDS011;5557;51.670;7.788;2022-08-05T13:49:59;82.00;;;7.43;;
11008;SDS011;5557;51.670;7.788;2022-08-05T13:52:30;119.33;;;8.13;;
11008;SDS011;5557;51.670;7.788;2022-08-05T13:55:00;30.07;;;3.63;;
11008;SDS011;5557;51.670;7.788;2022-08-05T13:57:34;3.33;;;1.53;;
11008;SDS011;5557;51.670;7.788;2022-08-05T14:00:16;3.83;;;2.07;;
11008;SDS011;5557;51.670;7.788;2022-08-05T14:02:53;5.50;;;1.10;;
11008;SDS011;5557;51.670;7.788;2022-08-05T14:05:26;3.10;;;1.70;;
11008;SDS011;5557;51.670;7.788;2022-08-05T14:07:54;2.73;;;1.33;;
11008;SDS011;5557;51.670;7.788;2022-08-05T14:10:32;2.07;;;1.23;;
11008;SDS011;5557;51.670;7.788;2022-08-05T14:13:02;1.60;;;1.17;;
11008;SDS011;5557;51.670;7.788;2022-08-05T14:15:31;1.37;;;1.10;;
11008;SDS011;5557;51.670;7.788;2022-08-05T14:18:18;3.90;;;1.07;;
11008;SDS011;5557;51.670;7.788;2022-08-05T14:20:49;4.83;;;0.97;;
11008;SDS011;5557;51.670;7.788;2022-08-05T14:23:20;1.70;;;0.93;;
11008;SDS011;5557;51.670;7.788;2022-08-05T14:25:54;3.83;;;0.90;;
11008;SDS011;5557;51.670;7.788;2022-08-05T14:28:25;1.60;;;0.70;;
11008;SDS011;5557;51.670;7.788;2022-08-05T14:30:54;3.97;;;1.10;;
11008;SDS011;5557;51.670;7.788;2022-08-05T14:33:21;3.33;;;1.30;;
11008;SDS011;5557;51.670;7.788;2022-08-05T14:35:49;1.20;;;1.10;;
11008;SDS011;5557;51.670;7.788;2022-08-05T14:38:19;1.97;;;1.10;;
11008;SDS011;5557;51.670;7.788;2022-08-05T14:40:59;0.90;;;0.80;;
11008;SDS011;5557;51.670;7.788;2022-08-05T14:43:33;3.03;;;1.07;;
11008;SDS011;5557;51.670;7.788;2022-08-05T14:46:21;1.70;;;0.90;;
11008;SDS011;5557;51.670;7.788;2022-08-05T14:48:55;2.47;;;0.70;;
11008;SDS011;5557;51.670;7.788;2022-08-05T14:51:28;6.90;;;1.57;;
11008;SDS011;5557;51.670;7.788;2022-08-05T14:53:57;3.10;;;1.30;;
11008;SDS011;5557;51.670;7.788;2022-08-05T14:56:45;1.63;;;1.00;;
11008;SDS011;5557;51.670;7.788;2022-08-05T14:59:12;1.73;;;1.30;;
11008;SDS011;5557;51.670;7.788;2022-08-05T15:01:40;3.27;;;1.43;;
11008;SDS011;5557;51.670;7.788;2022-08-05T15:04:15;2.40;;;1.60;;
11008;SDS011;5557;51.670;7.788;2022-08-05T15:06:48;1.60;;;1.27;;
11008;SDS011;5557;51.670;7.788;2022-08-05T15:09:19;1.63;;;1.53;;
11008;SDS011;5557;51.670;7.788;2022-08-05T15:12:06;6.43;;;2.30;;
11008;SDS011;5557;51.670;7.788;2022-08-05T15:14:41;3.10;;;1.37;;
11008;SDS011;5557;51.670;7.788;2022-08-05T15:17:16;1.93;;;1.40;;
11008;SDS011;5557;51.670;7.788;2022-08-05T15:20:09;1.93;;;1.73;;
11008;SDS011;5557;51.670;7.788;2022-08-05T15:22:44;1.93;;;1.13;;
11008;SDS011;5557;51.670;7.788;2022-08-05T15:25:19;5.50;;;1.63;;
11008;SDS011;5557;51.670;7.788;2022-08-05T15:28:07;2.73;;;1.73;;
11008;SDS011;5557;51.670;7.788;2022-08-05T15:30:40;5.30;;;1.27;;
11008;SDS011;5557;51.670;7.788;2022-08-05T15:33:08;1.43;;;0.53;;
11008;SDS011;5557;51.670;7.788;2022-08-05T15:35:37;2.07;;;1.33;;
11008;SDS011;5557;51.670;7.788;2022-08-05T15:38:11;1.00;;;0.60;;
11008;SDS011;5557;51.670;7.788;2022-08-05T15:40:58;1.77;;;0.53;;
11008;SDS011;5557;51.670;7.788;2022-08-05T15:43:45;1.60;;;0.80;;
11008;SDS011;5557;51.670;7.788;2022-08-05T15:46:12;1.10;;;0.57;;
11008;SDS011;5557;51.670;7.788;2022-08-05T15:48:40;0.90;;;0.60;;
11008;SDS011;5557;51.670;7.788;2022-08-05T15:51:27;1.50;;;0.60;;
11008;SDS011;5557;51.670;7.788;2022-08-05T15:54:14;7.07;;;0.50;;
11008;SDS011;5557;51.670;7.788;2022-08-05T15:56:41;1.00;;;0.50;;
11008;SDS011;5557;51.670;7.788;2022-08-05T15:59:09;2.20;;;0.60;;
11008;SDS011;5557;51.670;7.788;2022-08-05T16:01:47;3.47;;;0.70;;
11008;SDS011;5557;51.670;7.788;2022-08-05T16:04:19;0.90;;;0.60;;
11008;SDS011;5557;51.670;7.788;2022-08-05T16:06:51;0.90;;;0.60;;
11008;SDS011;5557;51.670;7.788;2022-08-05T16:09:21;1.20;;;0.50;;
11008;SDS011;5557;51.670;7.788;2022-08-05T16:11:49;2.03;;;0.60;;